createdAt,value
2023-04-02T00:01:12.060Z,48
2023-04-02T00:06:15.632Z,48
2023-04-02T00:11:17.788Z,48
2023-04-02T00:16:20.086Z,48
2023-04-02T00:21:23.626Z,48
2023-04-02T00:26:25.767Z,48
2023-04-02T00:31:28.083Z,48
2023-04-02T00:36:30.231Z,48
2023-04-02T00:41:39.005Z,48
2023-04-02T00:46:41.911Z,48
2023-04-02T00:51:44.047Z,48
2023-04-02T00:56:46.218Z,48
2023-04-02T01:01:49.895Z,48
2023-04-02T01:06:51.976Z,48
2023-04-02T01:11:54.130Z,48
2023-04-02T01:17:01.641Z,48
2023-04-02T01:22:03.739Z,48
2023-04-02T01:27:06.790Z,48
2023-04-02T01:32:09.068Z,48
2023-04-02T01:37:12.655Z,49
2023-04-02T01:42:14.889Z,49
2023-04-02T01:47:18.014Z,49
2023-04-02T01:52:20.294Z,49
2023-04-02T01:57:23.126Z,49
2023-04-02T02:02:30.061Z,48
2023-04-02T02:07:33.699Z,48
2023-04-02T02:12:36.011Z,48
2023-04-02T02:17:38.194Z,48
2023-04-02T02:22:40.253Z,48
2023-04-02T02:27:43.985Z,48
2023-04-02T02:32:46.345Z,48
2023-04-02T02:37:48.431Z,48
2023-04-02T02:42:50.737Z,48
2023-04-02T02:47:57.520Z,48
2023-04-02T02:52:59.700Z,48
2023-04-02T02:58:01.828Z,48
2023-04-02T03:03:07.326Z,48
2023-04-02T03:08:12.606Z,48
2023-04-02T03:13:14.844Z,49
2023-04-02T03:18:17.701Z,49
2023-04-02T03:23:20.556Z,48
2023-04-02T03:28:22.121Z,48
2023-04-02T03:33:25.031Z,48
2023-04-02T03:38:28.816Z,48
2023-04-02T03:43:31.832Z,48
2023-04-02T03:48:34.889Z,48
2023-04-02T03:53:41.568Z,48
2023-04-02T03:58:46.076Z,48
2023-04-02T04:03:48.464Z,48
2023-04-02T04:08:51.320Z,48
2023-04-02T04:13:54.205Z,48
2023-04-02T04:18:56.388Z,48
2023-04-02T04:23:58.497Z,48
2023-04-02T04:29:01.360Z,49
2023-04-02T04:34:04.413Z,49
2023-04-02T04:39:07.424Z,50
2023-04-02T04:44:15.563Z,51
2023-04-02T04:49:18.744Z,51
2023-04-02T04:54:21.006Z,51
2023-04-02T04:59:23.199Z,51
2023-04-02T05:04:30.335Z,51
2023-04-02T05:09:32.253Z,50
2023-04-02T05:14:35.158Z,49
2023-04-02T05:19:37.331Z,49
2023-04-02T05:24:44.058Z,48
2023-04-02T05:29:47.711Z,48
2023-04-02T05:34:49.884Z,48
2023-04-02T05:39:52.114Z,48
2023-04-02T05:44:56.473Z,48
2023-04-02T05:49:59.382Z,48
2023-04-02T05:55:06.938Z,49
2023-04-02T06:00:09.779Z,49
2023-04-02T06:05:16.622Z,49
2023-04-02T06:10:18.732Z,49
2023-04-02T06:15:20.865Z,50
2023-04-02T06:20:23.043Z,50
2023-04-02T06:25:25.147Z,50
2023-04-02T06:30:27.277Z,50
2023-04-02T06:35:29.693Z,50
2023-04-02T06:40:32.410Z,50
2023-04-02T06:45:34.840Z,50
2023-04-02T06:50:36.758Z,50
2023-04-02T06:55:39.688Z,50
2023-04-02T07:00:43.437Z,50
2023-04-02T07:05:45.551Z,50
2023-04-02T07:10:49.162Z,50
2023-04-02T07:15:51.542Z,50
2023-04-02T07:20:53.698Z,49
2023-04-02T07:25:56.581Z,49
2023-04-02T07:30:58.778Z,49
2023-04-02T07:36:00.910Z,49
2023-04-02T07:41:02.993Z,49
2023-04-02T07:46:05.159Z,49
2023-04-02T07:51:12.002Z,49
2023-04-02T07:56:14.086Z,48
2023-04-02T08:01:16.239Z,47
2023-04-02T08:06:18.393Z,46
2023-04-02T08:11:22.024Z,46
2023-04-02T08:16:24.219Z,45
2023-04-02T08:21:28.071Z,44
2023-04-02T08:26:31.631Z,43
2023-04-02T08:31:33.773Z,43
2023-04-02T08:36:35.929Z,43
2023-04-02T08:41:39.529Z,43
2023-04-02T08:46:47.712Z,43
2023-04-02T08:51:49.874Z,43
2023-04-02T08:56:52.063Z,44
2023-04-02T09:01:54.888Z,44
2023-04-02T09:06:58.553Z,44
2023-04-02T09:12:01.435Z,44
2023-04-02T09:17:03.733Z,44
2023-04-02T09:22:05.954Z,44
2023-04-02T09:27:08.071Z,44
2023-04-02T09:32:10.388Z,44
2023-04-02T09:37:14.034Z,44
2023-04-02T09:42:16.150Z,44
2023-04-02T09:47:19.193Z,44
2023-04-02T09:52:21.479Z,44
2023-04-02T09:57:24.365Z,44
2023-04-02T10:02:26.430Z,43
2023-04-02T10:07:28.738Z,42
2023-04-02T10:12:30.798Z,42
2023-04-02T10:17:32.991Z,41
2023-04-02T10:22:36.011Z,40
2023-04-02T10:27:42.714Z,40
2023-04-02T10:32:47.184Z,39
2023-04-02T10:37:53.978Z,39
2023-04-02T10:42:56.082Z,39
2023-04-02T10:47:58.327Z,39
2023-04-02T10:53:00.613Z,39
2023-04-02T10:58:04.182Z,39
2023-04-02T11:03:07.134Z,39
2023-04-02T11:08:10.919Z,40
2023-04-02T11:13:13.156Z,40
2023-04-02T11:18:15.335Z,40
2023-04-02T11:23:17.485Z,40
2023-04-02T11:28:19.770Z,40
2023-04-02T11:33:30.129Z,40
2023-04-02T11:38:25.535Z,40
2023-04-02T11:43:27.634Z,40
2023-04-02T11:48:29.866Z,40
2023-04-02T11:53:34.453Z,40
2023-04-02T11:58:36.680Z,40
2023-04-02T12:03:39.691Z,40
2023-04-02T12:08:54.652Z,40
2023-04-02T12:13:45.377Z,40
2023-04-02T12:18:47.526Z,40
2023-04-02T12:23:49.698Z,40
2023-04-02T12:28:51.802Z,40
2023-04-02T12:33:54.046Z,40
2023-04-02T12:38:56.201Z,40
2023-04-02T12:44:01.433Z,40
2023-04-02T12:49:05.088Z,40
2023-04-02T12:54:07.250Z,40
2023-04-02T12:59:09.399Z,40
2023-04-02T13:04:12.434Z,39
2023-04-02T13:09:17.524Z,39
2023-04-02T13:14:20.384Z,39
2023-04-02T13:19:24.044Z,39
2023-04-02T13:24:26.197Z,39
2023-04-02T13:29:30.555Z,39
2023-04-02T13:34:32.881Z,39
2023-04-02T13:39:35.039Z,39
2023-04-02T13:44:43.385Z,38
2023-04-02T13:49:46.220Z,38
2023-04-02T13:54:48.400Z,38
2023-04-02T13:59:52.021Z,38
2023-04-02T14:04:54.183Z,38
2023-04-02T14:09:57.822Z,38
2023-04-02T14:14:59.937Z,38
2023-04-02T14:20:02.848Z,38
2023-04-02T14:30:12.648Z,38
2023-04-02T14:35:14.711Z,38
2023-04-02T14:40:17.669Z,38
2023-04-02T14:45:20.591Z,38
2023-04-02T14:50:23.422Z,38
2023-04-02T14:55:28.687Z,38
2023-04-02T15:00:30.916Z,38
2023-04-02T15:05:33.730Z,38
2023-04-02T15:10:37.649Z,38
2023-04-02T15:15:41.133Z,38
2023-04-02T15:20:44.887Z,38
2023-04-02T15:25:47.003Z,38
2023-04-02T15:30:50.713Z,38
2023-04-02T15:35:52.845Z,38
2023-04-02T15:40:55.089Z,38
2023-04-02T15:45:59.490Z,38
2023-04-02T15:51:02.292Z,38
2023-04-02T15:56:04.421Z,38
2023-04-02T16:01:08.085Z,38
2023-04-02T16:06:10.186Z,38
2023-04-02T16:11:13.234Z,38
2023-04-02T16:16:19.990Z,38
2023-04-02T16:21:23.708Z,38
2023-04-02T16:26:25.819Z,38
2023-04-02T16:31:28.991Z,38
2023-04-02T16:36:35.750Z,38
2023-04-02T16:41:37.923Z,38
2023-04-02T16:46:44.800Z,38
2023-04-02T16:51:48.355Z,39
2023-04-02T16:56:50.716Z,40
2023-04-02T17:01:55.126Z,41
2023-04-02T17:07:01.888Z,43
2023-04-02T17:12:04.065Z,44
2023-04-02T17:17:08.477Z,45
2023-04-02T17:22:10.599Z,45
2023-04-02T17:27:13.470Z,45
2023-04-02T17:32:15.618Z,45
2023-04-02T17:37:19.390Z,44
2023-04-02T17:42:22.285Z,43
2023-04-02T17:47:24.639Z,43
2023-04-02T17:52:27.406Z,42
2023-04-02T17:57:29.636Z,42
2023-04-02T18:02:32.739Z,42
2023-04-02T18:07:39.432Z,42
2023-04-02T18:12:42.405Z,43
2023-04-02T18:17:44.740Z,43
2023-04-02T18:22:48.363Z,43
2023-04-02T18:27:51.262Z,43
2023-04-02T18:32:53.761Z,44
2023-04-02T18:37:56.706Z,44
2023-04-02T18:42:59.613Z,44
2023-04-02T18:48:01.824Z,44
2023-04-02T18:53:03.942Z,45
2023-04-02T18:58:07.185Z,45
2023-04-02T19:03:14.014Z,45
2023-04-02T19:08:16.860Z,45
2023-04-02T19:13:18.990Z,45
2023-04-02T19:18:21.301Z,45
2023-04-02T19:23:28.244Z,45
2023-04-02T19:28:30.426Z,45
2023-04-02T19:33:32.898Z,45
2023-04-02T19:38:37.367Z,45
2023-04-02T19:43:41.971Z,45
2023-04-02T19:48:44.183Z,45
2023-04-02T19:53:46.435Z,45
2023-04-02T19:58:49.324Z,45
2023-04-02T20:03:52.253Z,45
2023-04-02T20:08:55.130Z,45
2023-04-02T20:13:58.163Z,45
2023-04-02T20:19:00.437Z,45
2023-04-02T20:24:03.470Z,45
2023-04-02T20:29:05.549Z,45
2023-04-02T20:34:07.986Z,44
2023-04-02T20:39:09.926Z,44
2023-04-02T20:44:12.829Z,44
2023-04-02T20:49:19.586Z,43
2023-04-02T20:54:24.823Z,43
2023-04-02T20:59:29.468Z,43
2023-04-02T21:04:31.703Z,43
2023-04-02T21:09:34.517Z,43
2023-04-02T21:14:38.184Z,43
2023-04-02T21:19:40.354Z,43
2023-04-02T21:24:43.973Z,44
2023-04-02T21:29:46.269Z,44
2023-04-02T21:34:48.397Z,44
2023-04-02T21:39:50.497Z,44
2023-04-02T21:44:55.106Z,44
2023-04-02T21:49:57.400Z,44
2023-04-02T21:54:59.586Z,44
2023-04-02T22:00:01.713Z,44
2023-04-02T22:05:04.869Z,44
2023-04-02T22:10:08.464Z,44
2023-04-02T22:15:10.560Z,44
2023-04-02T22:20:12.725Z,44
2023-04-02T22:25:14.844Z,44
2023-04-02T22:30:17.912Z,44
2023-04-02T22:35:20.065Z,44
2023-04-02T22:40:23.084Z,44
2023-04-02T22:45:25.380Z,44
2023-04-02T22:50:32.356Z,44
2023-04-02T22:55:34.600Z,44
2023-04-02T23:00:37.024Z,44
2023-04-02T23:05:41.429Z,44
2023-04-02T23:10:43.740Z,44
2023-04-02T23:15:45.862Z,44
2023-04-02T23:20:47.985Z,45
2023-04-02T23:25:53.376Z,45
2023-04-02T23:30:55.511Z,45
2023-04-02T23:36:00.192Z,45
2023-04-02T23:41:03.706Z,45
2023-04-02T23:46:05.822Z,45
2023-04-02T23:51:08.021Z,45
2023-04-02T23:56:10.146Z,45
